sensor_id;sensor_type;location;lat;lon;timestamp;P1;durP1;ratioP1;P2;durP2;ratioP2
67130;SDS011;54051;53.464;49.532;2022-10-22T00:01:32;6.20;;;2.30;;
67130;SDS011;54051;53.464;49.532;2022-10-22T00:03:59;6.60;;;2.63;;
67130;SDS011;54051;53.464;49.532;2022-10-22T00:06:25;7.70;;;2.60;;
67130;SDS011;54051;53.464;49.532;2022-10-22T00:08:51;6.13;;;2.50;;
67130;SDS011;54051;53.464;49.532;2022-10-22T00:11:18;5.93;;;2.42;;
67130;SDS011;54051;53.464;49.532;2022-10-22T00:13:44;6.90;;;2.70;;
67130;SDS011;54051;53.464;49.532;2022-10-22T00:16:11;5.68;;;2.45;;
67130;SDS011;54051;53.464;49.532;2022-10-22T00:18:37;5.72;;;2.40;;
67130;SDS011;54051;53.464;49.532;2022-10-22T00:21:04;7.00;;;2.60;;
67130;SDS011;54051;53.464;49.532;2022-10-22T00:23:31;6.50;;;2.60;;
67130;SDS011;54051;53.464;49.532;2022-10-22T00:25:58;6.97;;;2.20;;
67130;SDS011;54051;53.464;49.532;2022-10-22T00:28:24;6.63;;;2.50;;
67130;SDS011;54051;53.464;49.532;2022-10-22T00:30:56;5.68;;;2.25;;
67130;SDS011;54051;53.464;49.532;2022-10-22T00:33:24;6.13;;;2.35;;
67130;SDS011;54051;53.464;49.532;2022-10-22T00:35:50;6.73;;;2.47;;
67130;SDS011;54051;53.464;49.532;2022-10-22T00:38:16;5.95;;;2.60;;
67130;SDS011;54051;53.464;49.532;2022-10-22T00:40:43;5.85;;;2.45;;
67130;SDS011;54051;53.464;49.532;2022-10-22T00:43:10;6.03;;;2.30;;
67130;SDS011;54051;53.464;49.532;2022-10-22T00:45:37;7.60;;;2.65;;
67130;SDS011;54051;53.464;49.532;2022-10-22T00:48:04;6.20;;;2.30;;
67130;SDS011;54051;53.464;49.532;2022-10-22T00:53:18;5.72;;;2.60;;
67130;SDS011;54051;53.464;49.532;2022-10-22T00:55:46;6.15;;;2.40;;
67130;SDS011;54051;53.464;49.532;2022-10-22T00:58:15;7.97;;;2.60;;
67130;SDS011;54051;53.464;49.532;2022-10-22T01:00:42;5.53;;;2.20;;
67130;SDS011;54051;53.464;49.532;2022-10-22T01:03:09;6.17;;;2.33;;
67130;SDS011;54051;53.464;49.532;2022-10-22T01:05:39;6.53;;;2.60;;
67130;SDS011;54051;53.464;49.532;2022-10-22T01:08:08;6.03;;;2.65;;
67130;SDS011;54051;53.464;49.532;2022-10-22T01:11:05;6.03;;;2.35;;
67130;SDS011;54051;53.464;49.532;2022-10-22T01:13:59;5.68;;;2.42;;
67130;SDS011;54051;53.464;49.532;2022-10-22T01:19:31;6.72;;;2.42;;
67130;SDS011;54051;53.464;49.532;2022-10-22T01:22:20;6.13;;;2.58;;
67130;SDS011;54051;53.464;49.532;2022-10-22T01:25:02;7.05;;;2.38;;
67130;SDS011;54051;53.464;49.532;2022-10-22T01:30:38;7.25;;;2.50;;
67130;SDS011;54051;53.464;49.532;2022-10-22T01:33:05;6.40;;;2.50;;
67130;SDS011;54051;53.464;49.532;2022-10-22T01:35:36;6.70;;;2.70;;
67130;SDS011;54051;53.464;49.532;2022-10-22T01:38:07;6.28;;;2.60;;
67130;SDS011;54051;53.464;49.532;2022-10-22T01:40:36;7.53;;;2.50;;
67130;SDS011;54051;53.464;49.532;2022-10-22T01:43:04;5.82;;;2.47;;
67130;SDS011;54051;53.464;49.532;2022-10-22T01:45:36;6.00;;;2.38;;
67130;SDS011;54051;53.464;49.532;2022-10-22T01:48:33;8.23;;;2.47;;
67130;SDS011;54051;53.464;49.532;2022-10-22T01:51:13;5.85;;;2.45;;
67130;SDS011;54051;53.464;49.532;2022-10-22T01:59:38;6.35;;;2.75;;
67130;SDS011;54051;53.464;49.532;2022-10-22T02:05:16;21.63;;;11.32;;
67130;SDS011;54051;53.464;49.532;2022-10-22T02:13:08;6.68;;;2.65;;
67130;SDS011;54051;53.464;49.532;2022-10-22T02:15:40;7.38;;;2.42;;
67130;SDS011;54051;53.464;49.532;2022-10-22T02:18:10;6.70;;;2.72;;
67130;SDS011;54051;53.464;49.532;2022-10-22T02:20:37;7.53;;;2.60;;
67130;SDS011;54051;53.464;49.532;2022-10-22T02:23:05;6.75;;;2.60;;
67130;SDS011;54051;53.464;49.532;2022-10-22T02:25:34;6.40;;;2.40;;
67130;SDS011;54051;53.464;49.532;2022-10-22T02:28:08;5.85;;;2.47;;
67130;SDS011;54051;53.464;49.532;2022-10-22T02:30:41;7.93;;;2.55;;
67130;SDS011;54051;53.464;49.532;2022-10-22T02:33:11;6.93;;;2.60;;
67130;SDS011;54051;53.464;49.532;2022-10-22T02:35:46;6.97;;;2.53;;
67130;SDS011;54051;53.464;49.532;2022-10-22T02:38:14;7.28;;;2.85;;
67130;SDS011;54051;53.464;49.532;2022-10-22T02:40:40;6.53;;;2.40;;
67130;SDS011;54051;53.464;49.532;2022-10-22T02:43:07;6.28;;;2.55;;
67130;SDS011;54051;53.464;49.532;2022-10-22T02:45:33;10.05;;;3.78;;
67130;SDS011;54051;53.464;49.532;2022-10-22T02:48:00;12.60;;;5.72;;
67130;SDS011;54051;53.464;49.532;2022-10-22T02:50:26;6.50;;;2.53;;
67130;SDS011;54051;53.464;49.532;2022-10-22T02:52:52;5.88;;;2.33;;
67130;SDS011;54051;53.464;49.532;2022-10-22T02:55:18;6.13;;;2.50;;
67130;SDS011;54051;53.464;49.532;2022-10-22T02:57:44;7.10;;;2.55;;
67130;SDS011;54051;53.464;49.532;2022-10-22T03:00:10;6.10;;;2.53;;
67130;SDS011;54051;53.464;49.532;2022-10-22T03:02:37;7.97;;;2.92;;
67130;SDS011;54051;53.464;49.532;2022-10-22T03:05:03;6.88;;;2.50;;
67130;SDS011;54051;53.464;49.532;2022-10-22T03:07:30;6.20;;;2.58;;
67130;SDS011;54051;53.464;49.532;2022-10-22T03:09:56;7.00;;;3.13;;
67130;SDS011;54051;53.464;49.532;2022-10-22T03:12:22;6.35;;;2.65;;
67130;SDS011;54051;53.464;49.532;2022-10-22T03:14:48;7.57;;;2.70;;
67130;SDS011;54051;53.464;49.532;2022-10-22T03:17:13;7.80;;;2.58;;
67130;SDS011;54051;53.464;49.532;2022-10-22T03:19:40;5.82;;;2.58;;
67130;SDS011;54051;53.464;49.532;2022-10-22T03:22:08;6.87;;;2.67;;
67130;SDS011;54051;53.464;49.532;2022-10-22T03:27:55;6.30;;;2.63;;
67130;SDS011;54051;53.464;49.532;2022-10-22T03:30:24;7.47;;;2.67;;
67130;SDS011;54051;53.464;49.532;2022-10-22T03:32:50;6.88;;;2.78;;
67130;SDS011;54051;53.464;49.532;2022-10-22T03:35:16;5.80;;;2.58;;
67130;SDS011;54051;53.464;49.532;2022-10-22T03:37:42;7.13;;;2.50;;
67130;SDS011;54051;53.464;49.532;2022-10-22T03:40:08;8.43;;;2.78;;
67130;SDS011;54051;53.464;49.532;2022-10-22T03:42:35;7.15;;;2.90;;
67130;SDS011;54051;53.464;49.532;2022-10-22T03:45:02;8.55;;;3.13;;
67130;SDS011;54051;53.464;49.532;2022-10-22T03:47:28;10.33;;;4.87;;
67130;SDS011;54051;53.464;49.532;2022-10-22T03:49:54;18.52;;;10.48;;
67130;SDS011;54051;53.464;49.532;2022-10-22T03:52:20;6.68;;;2.78;;
67130;SDS011;54051;53.464;49.532;2022-10-22T03:54:46;10.90;;;3.15;;
67130;SDS011;54051;53.464;49.532;2022-10-22T03:57:12;6.13;;;2.60;;
67130;SDS011;54051;53.464;49.532;2022-10-22T03:59:39;6.80;;;2.45;;
67130;SDS011;54051;53.464;49.532;2022-10-22T04:02:07;6.57;;;2.67;;
67130;SDS011;54051;53.464;49.532;2022-10-22T04:04:34;7.97;;;2.65;;
67130;SDS011;54051;53.464;49.532;2022-10-22T04:07:01;7.55;;;2.70;;
67130;SDS011;54051;53.464;49.532;2022-10-22T04:09:31;8.63;;;2.60;;
67130;SDS011;54051;53.464;49.532;2022-10-22T04:11:58;7.55;;;2.78;;
67130;SDS011;54051;53.464;49.532;2022-10-22T04:14:24;7.07;;;2.67;;
67130;SDS011;54051;53.464;49.532;2022-10-22T04:16:50;5.70;;;2.10;;
67130;SDS011;54051;53.464;49.532;2022-10-22T04:19:16;7.68;;;2.47;;
67130;SDS011;54051;53.464;49.532;2022-10-22T04:21:42;6.82;;;2.70;;
67130;SDS011;54051;53.464;49.532;2022-10-22T04:24:09;6.88;;;2.60;;
67130;SDS011;54051;53.464;49.532;2022-10-22T04:26:35;6.90;;;2.53;;
67130;SDS011;54051;53.464;49.532;2022-10-22T04:29:01;5.55;;;2.33;;
67130;SDS011;54051;53.464;49.532;2022-10-22T04:31:27;7.03;;;2.50;;
67130;SDS011;54051;53.464;49.532;2022-10-22T04:33:54;6.07;;;2.45;;
67130;SDS011;54051;53.464;49.532;2022-10-22T04:36:21;6.00;;;2.50;;
67130;SDS011;54051;53.464;49.532;2022-10-22T04:38:51;7.35;;;2.70;;
67130;SDS011;54051;53.464;49.532;2022-10-22T04:41:26;5.93;;;2.28;;
67130;SDS011;54051;53.464;49.532;2022-10-22T04:43:57;8.80;;;3.17;;
67130;SDS011;54051;53.464;49.532;2022-10-22T04:46:24;5.97;;;2.72;;
67130;SDS011;54051;53.464;49.532;2022-10-22T04:48:51;6.32;;;2.50;;
67130;SDS011;54051;53.464;49.532;2022-10-22T04:51:18;6.07;;;2.45;;
67130;SDS011;54051;53.464;49.532;2022-10-22T04:53:47;7.07;;;2.90;;
67130;SDS011;54051;53.464;49.532;2022-10-22T04:56:15;6.18;;;2.35;;
67130;SDS011;54051;53.464;49.532;2022-10-22T04:58:46;5.95;;;2.45;;
67130;SDS011;54051;53.464;49.532;2022-10-22T05:01:14;6.95;;;2.40;;
67130;SDS011;54051;53.464;49.532;2022-10-22T05:03:42;5.65;;;2.45;;
67130;SDS011;54051;53.464;49.532;2022-10-22T05:06:09;7.90;;;2.60;;
67130;SDS011;54051;53.464;49.532;2022-10-22T05:08:35;5.57;;;2.45;;
67130;SDS011;54051;53.464;49.532;2022-10-22T05:11:09;6.05;;;2.53;;
67130;SDS011;54051;53.464;49.532;2022-10-22T05:13:36;6.18;;;2.42;;
67130;SDS011;54051;53.464;49.532;2022-10-22T05:16:02;6.22;;;2.50;;
67130;SDS011;54051;53.464;49.532;2022-10-22T05:18:29;8.02;;;2.90;;
67130;SDS011;54051;53.464;49.532;2022-10-22T05:20:54;4.97;;;2.40;;
67130;SDS011;54051;53.464;49.532;2022-10-22T05:23:20;6.03;;;2.20;;
67130;SDS011;54051;53.464;49.532;2022-10-22T05:25:46;5.68;;;2.70;;
67130;SDS011;54051;53.464;49.532;2022-10-22T05:28:12;6.47;;;2.50;;
67130;SDS011;54051;53.464;49.532;2022-10-22T05:30:38;6.22;;;2.55;;
67130;SDS011;54051;53.464;49.532;2022-10-22T05:33:04;5.25;;;2.50;;
67130;SDS011;54051;53.464;49.532;2022-10-22T05:35:30;6.38;;;2.50;;
67130;SDS011;54051;53.464;49.532;2022-10-22T05:37:56;10.43;;;3.33;;
67130;SDS011;54051;53.464;49.532;2022-10-22T05:40:22;4.80;;;2.30;;
67130;SDS011;54051;53.464;49.532;2022-10-22T05:42:50;6.50;;;2.40;;
67130;SDS011;54051;53.464;49.532;2022-10-22T05:45:16;6.55;;;2.38;;
67130;SDS011;54051;53.464;49.532;2022-10-22T05:47:42;6.13;;;2.43;;
67130;SDS011;54051;53.464;49.532;2022-10-22T05:50:09;6.40;;;2.60;;
67130;SDS011;54051;53.464;49.532;2022-10-22T05:52:34;6.10;;;2.30;;
67130;SDS011;54051;53.464;49.532;2022-10-22T05:55:00;4.90;;;2.10;;
67130;SDS011;54051;53.464;49.532;2022-10-22T05:57:26;5.82;;;2.55;;
67130;SDS011;54051;53.464;49.532;2022-10-22T05:59:52;5.90;;;2.30;;
67130;SDS011;54051;53.464;49.532;2022-10-22T06:02:18;5.13;;;2.10;;
67130;SDS011;54051;53.464;49.532;2022-10-22T06:04:44;5.60;;;2.20;;
67130;SDS011;54051;53.464;49.532;2022-10-22T06:07:12;5.43;;;2.35;;
67130;SDS011;54051;53.464;49.532;2022-10-22T06:09:39;4.65;;;1.90;;
67130;SDS011;54051;53.464;49.532;2022-10-22T06:12:06;7.50;;;3.20;;
67130;SDS011;54051;53.464;49.532;2022-10-22T06:14:35;5.15;;;2.50;;
67130;SDS011;54051;53.464;49.532;2022-10-22T06:17:01;5.05;;;2.22;;
67130;SDS011;54051;53.464;49.532;2022-10-22T06:19:27;7.10;;;2.92;;
67130;SDS011;54051;53.464;49.532;2022-10-22T06:21:55;5.35;;;2.33;;
67130;SDS011;54051;53.464;49.532;2022-10-22T06:24:21;7.07;;;3.33;;
67130;SDS011;54051;53.464;49.532;2022-10-22T07:28:12;5.32;;;2.28;;
67130;SDS011;54051;53.464;49.532;2022-10-22T07:30:39;4.20;;;1.55;;
67130;SDS011;54051;53.464;49.532;2022-10-22T07:33:05;4.13;;;1.80;;
67130;SDS011;54051;53.464;49.532;2022-10-22T07:35:32;5.10;;;1.80;;
67130;SDS011;54051;53.464;49.532;2022-10-22T07:37:59;5.70;;;1.63;;
67130;SDS011;54051;53.464;49.532;2022-10-22T07:40:25;5.13;;;1.60;;
67130;SDS011;54051;53.464;49.532;2022-10-22T07:42:57;4.18;;;1.50;;
67130;SDS011;54051;53.464;49.532;2022-10-22T07:45:23;4.93;;;1.50;;
67130;SDS011;54051;53.464;49.532;2022-10-22T07:47:52;4.47;;;1.30;;
67130;SDS011;54051;53.464;49.532;2022-10-22T07:50:19;4.75;;;1.67;;
67130;SDS011;54051;53.464;49.532;2022-10-22T07:52:45;5.72;;;1.85;;
67130;SDS011;54051;53.464;49.532;2022-10-22T07:57:41;5.05;;;1.20;;
67130;SDS011;54051;53.464;49.532;2022-10-22T08:00:11;4.90;;;1.30;;
67130;SDS011;54051;53.464;49.532;2022-10-22T08:02:37;4.55;;;1.30;;
67130;SDS011;54051;53.464;49.532;2022-10-22T08:05:04;5.30;;;1.60;;
67130;SDS011;54051;53.464;49.532;2022-10-22T08:07:30;9.35;;;5.03;;
67130;SDS011;54051;53.464;49.532;2022-10-22T08:09:57;11.63;;;5.47;;
67130;SDS011;54051;53.464;49.532;2022-10-22T08:12:23;7.70;;;2.47;;
67130;SDS011;54051;53.464;49.532;2022-10-22T08:14:50;3.72;;;1.60;;
67130;SDS011;54051;53.464;49.532;2022-10-22T08:17:16;3.72;;;1.40;;
67130;SDS011;54051;53.464;49.532;2022-10-22T08:19:42;4.60;;;1.40;;
67130;SDS011;54051;53.464;49.532;2022-10-22T08:22:09;4.13;;;1.30;;
67130;SDS011;54051;53.464;49.532;2022-10-22T08:24:35;7.60;;;3.08;;
67130;SDS011;54051;53.464;49.532;2022-10-22T08:27:01;5.75;;;2.40;;
67130;SDS011;54051;53.464;49.532;2022-10-22T08:29:28;4.95;;;1.90;;
67130;SDS011;54051;53.464;49.532;2022-10-22T08:31:54;5.35;;;2.05;;
67130;SDS011;54051;53.464;49.532;2022-10-22T08:34:21;4.68;;;1.30;;
67130;SDS011;54051;53.464;49.532;2022-10-22T08:36:47;4.40;;;1.50;;
67130;SDS011;54051;53.464;49.532;2022-10-22T08:39:13;4.93;;;1.33;;
67130;SDS011;54051;53.464;49.532;2022-10-22T08:41:47;12.82;;;7.82;;
67130;SDS011;54051;53.464;49.532;2022-10-22T08:44:30;4.45;;;1.40;;
67130;SDS011;54051;53.464;49.532;2022-10-22T08:49:45;6.78;;;1.90;;
67130;SDS011;54051;53.464;49.532;2022-10-22T08:52:13;4.22;;;1.60;;
67130;SDS011;54051;53.464;49.532;2022-10-22T09:08:19;5.78;;;1.70;;
67130;SDS011;54051;53.464;49.532;2022-10-22T09:10:47;4.10;;;1.00;;
67130;SDS011;54051;53.464;49.532;2022-10-22T09:13:17;3.45;;;1.20;;
67130;SDS011;54051;53.464;49.532;2022-10-22T09:16:00;4.13;;;1.25;;
67130;SDS011;54051;53.464;49.532;2022-10-22T09:18:45;8.10;;;1.73;;
67130;SDS011;54051;53.464;49.532;2022-10-22T09:23:59;4.38;;;1.60;;
67130;SDS011;54051;53.464;49.532;2022-10-22T09:26:38;6.80;;;1.92;;
67130;SDS011;54051;53.464;49.532;2022-10-22T09:29:06;5.20;;;1.88;;
67130;SDS011;54051;53.464;49.532;2022-10-22T09:31:38;4.82;;;1.50;;
67130;SDS011;54051;53.464;49.532;2022-10-22T09:34:04;7.20;;;1.60;;
67130;SDS011;54051;53.464;49.532;2022-10-22T09:36:32;5.90;;;2.20;;
67130;SDS011;54051;53.464;49.532;2022-10-22T09:38:59;6.68;;;2.00;;
67130;SDS011;54051;53.464;49.532;2022-10-22T09:41:27;7.05;;;2.08;;
67130;SDS011;54051;53.464;49.532;2022-10-22T09:43:57;7.43;;;2.63;;
67130;SDS011;54051;53.464;49.532;2022-10-22T09:46:26;6.53;;;2.17;;
67130;SDS011;54051;53.464;49.532;2022-10-22T09:56:52;7.10;;;2.20;;
67130;SDS011;54051;53.464;49.532;2022-10-22T09:59:40;5.85;;;1.90;;
67130;SDS011;54051;53.464;49.532;2022-10-22T10:04:34;4.38;;;1.60;;
67130;SDS011;54051;53.464;49.532;2022-10-22T10:07:12;5.05;;;1.50;;
67130;SDS011;54051;53.464;49.532;2022-10-22T10:09:42;4.28;;;1.20;;
67130;SDS011;54051;53.464;49.532;2022-10-22T10:21:12;5.53;;;1.38;;
67130;SDS011;54051;53.464;49.532;2022-10-22T10:34:47;8.25;;;2.80;;
67130;SDS011;54051;53.464;49.532;2022-10-22T10:37:17;11.95;;;3.70;;
67130;SDS011;54051;53.464;49.532;2022-10-22T10:50:19;8.95;;;3.00;;
67130;SDS011;54051;53.464;49.532;2022-10-22T10:53:16;8.82;;;2.42;;
67130;SDS011;54051;53.464;49.532;2022-10-22T10:56:01;6.60;;;2.25;;
67130;SDS011;54051;53.464;49.532;2022-10-22T10:58:46;8.68;;;3.15;;
67130;SDS011;54051;53.464;49.532;2022-10-22T11:04:44;5.32;;;2.10;;
67130;SDS011;54051;53.464;49.532;2022-10-22T11:07:26;6.07;;;1.70;;
67130;SDS011;54051;53.464;49.532;2022-10-22T11:10:02;8.35;;;2.05;;
67130;SDS011;54051;53.464;49.532;2022-10-22T11:12:40;7.47;;;2.53;;
67130;SDS011;54051;53.464;49.532;2022-10-22T11:17:55;10.30;;;3.22;;
67130;SDS011;54051;53.464;49.532;2022-10-22T11:20:31;7.90;;;3.33;;
67130;SDS011;54051;53.464;49.532;2022-10-22T11:23:15;6.85;;;2.42;;
67130;SDS011;54051;53.464;49.532;2022-10-22T11:25:46;5.90;;;2.10;;
67130;SDS011;54051;53.464;49.532;2022-10-22T11:31:00;13.13;;;3.72;;
67130;SDS011;54051;53.464;49.532;2022-10-22T11:33:36;5.90;;;2.40;;
67130;SDS011;54051;53.464;49.532;2022-10-22T11:36:10;7.47;;;2.72;;
67130;SDS011;54051;53.464;49.532;2022-10-22T11:38:38;7.82;;;3.08;;
67130;SDS011;54051;53.464;49.532;2022-10-22T11:41:26;7.80;;;2.80;;
67130;SDS011;54051;53.464;49.532;2022-10-22T11:44:08;7.32;;;2.53;;
67130;SDS011;54051;53.464;49.532;2022-10-22T11:51:38;6.80;;;2.08;;
67130;SDS011;54051;53.464;49.532;2022-10-22T11:59:52;8.73;;;2.58;;
67130;SDS011;54051;53.464;49.532;2022-10-22T12:05:17;6.32;;;2.50;;
67130;SDS011;54051;53.464;49.532;2022-10-22T12:07:54;8.15;;;2.28;;
67130;SDS011;54051;53.464;49.532;2022-10-22T12:10:35;7.63;;;2.60;;
67130;SDS011;54051;53.464;49.532;2022-10-22T12:13:27;7.50;;;2.40;;
67130;SDS011;54051;53.464;49.532;2022-10-22T12:15:57;6.78;;;2.50;;
67130;SDS011;54051;53.464;49.532;2022-10-22T12:18:27;8.60;;;2.53;;
67130;SDS011;54051;53.464;49.532;2022-10-22T12:21:08;9.68;;;3.30;;
67130;SDS011;54051;53.464;49.532;2022-10-22T12:23:38;10.00;;;3.55;;
67130;SDS011;54051;53.464;49.532;2022-10-22T12:26:05;9.02;;;3.60;;
67130;SDS011;54051;53.464;49.532;2022-10-22T12:28:46;9.05;;;3.38;;
67130;SDS011;54051;53.464;49.532;2022-10-22T12:31:15;6.57;;;2.30;;
67130;SDS011;54051;53.464;49.532;2022-10-22T12:33:41;5.68;;;2.20;;
67130;SDS011;54051;53.464;49.532;2022-10-22T12:36:17;6.72;;;2.25;;
67130;SDS011;54051;53.464;49.532;2022-10-22T12:38:46;5.88;;;1.85;;
67130;SDS011;54051;53.464;49.532;2022-10-22T12:41:13;6.35;;;2.00;;
67130;SDS011;54051;53.464;49.532;2022-10-22T12:43:39;4.57;;;1.50;;
67130;SDS011;54051;53.464;49.532;2022-10-22T12:46:10;6.13;;;1.73;;
67130;SDS011;54051;53.464;49.532;2022-10-22T12:48:39;6.68;;;2.08;;
67130;SDS011;54051;53.464;49.532;2022-10-22T12:51:10;5.75;;;2.03;;
67130;SDS011;54051;53.464;49.532;2022-10-22T12:53:52;5.65;;;2.10;;
67130;SDS011;54051;53.464;49.532;2022-10-22T12:56:25;7.65;;;2.60;;
67130;SDS011;54051;53.464;49.532;2022-10-22T12:58:57;7.15;;;2.50;;
67130;SDS011;54051;53.464;49.532;2022-10-22T13:01:44;8.52;;;1.90;;
67130;SDS011;54051;53.464;49.532;2022-10-22T13:06:43;7.22;;;2.17;;
67130;SDS011;54051;53.464;49.532;2022-10-22T13:09:13;6.90;;;2.28;;
67130;SDS011;54051;53.464;49.532;2022-10-22T13:11:55;6.20;;;2.45;;
67130;SDS011;54051;53.464;49.532;2022-10-22T13:14:30;6.68;;;2.53;;
67130;SDS011;54051;53.464;49.532;2022-10-22T13:17:01;8.38;;;2.78;;
67130;SDS011;54051;53.464;49.532;2022-10-22T13:19:45;6.35;;;2.50;;
67130;SDS011;54051;53.464;49.532;2022-10-22T13:27:42;5.80;;;2.60;;
67130;SDS011;54051;53.464;49.532;2022-10-22T13:30:26;9.40;;;3.15;;
67130;SDS011;54051;53.464;49.532;2022-10-22T13:32:59;10.15;;;3.28;;
67130;SDS011;54051;53.464;49.532;2022-10-22T13:35:44;15.40;;;3.97;;
67130;SDS011;54051;53.464;49.532;2022-10-22T13:38:12;8.80;;;3.63;;
67130;SDS011;54051;53.464;49.532;2022-10-22T13:40:43;8.63;;;3.75;;
67130;SDS011;54051;53.464;49.532;2022-10-22T13:43:09;10.75;;;3.45;;
67130;SDS011;54051;53.464;49.532;2022-10-22T13:45:35;11.93;;;4.43;;
67130;SDS011;54051;53.464;49.532;2022-10-22T13:48:01;18.00;;;6.75;;
67130;SDS011;54051;53.464;49.532;2022-10-22T13:50:28;12.53;;;4.67;;
67130;SDS011;54051;53.464;49.532;2022-10-22T13:52:55;7.43;;;3.47;;
67130;SDS011;54051;53.464;49.532;2022-10-22T13:55:27;11.65;;;4.10;;
67130;SDS011;54051;53.464;49.532;2022-10-22T14:00:25;9.35;;;4.00;;
67130;SDS011;54051;53.464;49.532;2022-10-22T14:02:52;11.52;;;4.43;;
67130;SDS011;54051;53.464;49.532;2022-10-22T14:05:21;13.98;;;4.60;;
67130;SDS011;54051;53.464;49.532;2022-10-22T14:07:48;12.50;;;4.65;;
67130;SDS011;54051;53.464;49.532;2022-10-22T14:10:16;13.05;;;5.65;;
67130;SDS011;54051;53.464;49.532;2022-10-22T14:12:46;14.68;;;4.82;;
67130;SDS011;54051;53.464;49.532;2022-10-22T14:15:14;18.92;;;5.30;;
67130;SDS011;54051;53.464;49.532;2022-10-22T14:17:44;13.43;;;5.05;;
67130;SDS011;54051;53.464;49.532;2022-10-22T14:20:18;14.23;;;5.20;;
67130;SDS011;54051;53.464;49.532;2022-10-22T14:22:47;20.23;;;5.95;;
67130;SDS011;54051;53.464;49.532;2022-10-22T14:25:15;12.70;;;5.90;;
67130;SDS011;54051;53.464;49.532;2022-10-22T14:27:43;18.10;;;6.13;;
67130;SDS011;54051;53.464;49.532;2022-10-22T14:30:28;19.13;;;6.22;;
67130;SDS011;54051;53.464;49.532;2022-10-22T14:32:54;15.32;;;5.75;;
67130;SDS011;54051;53.464;49.532;2022-10-22T14:35:22;17.20;;;6.50;;
67130;SDS011;54051;53.464;49.532;2022-10-22T14:37:49;17.13;;;7.50;;
67130;SDS011;54051;53.464;49.532;2022-10-22T14:40:16;35.28;;;16.10;;
67130;SDS011;54051;53.464;49.532;2022-10-22T14:42:45;28.23;;;14.25;;
67130;SDS011;54051;53.464;49.532;2022-10-22T14:45:14;25.77;;;11.30;;
67130;SDS011;54051;53.464;49.532;2022-10-22T14:47:46;29.17;;;12.52;;
67130;SDS011;54051;53.464;49.532;2022-10-22T14:50:13;31.52;;;15.13;;
67130;SDS011;54051;53.464;49.532;2022-10-22T14:52:42;23.58;;;10.77;;
67130;SDS011;54051;53.464;49.532;2022-10-22T14:55:09;23.33;;;10.00;;
67130;SDS011;54051;53.464;49.532;2022-10-22T14:57:38;26.30;;;9.68;;
67130;SDS011;54051;53.464;49.532;2022-10-22T15:00:05;23.67;;;9.18;;
67130;SDS011;54051;53.464;49.532;2022-10-22T15:02:34;21.98;;;8.55;;
67130;SDS011;54051;53.464;49.532;2022-10-22T15:05:00;21.02;;;8.43;;
67130;SDS011;54051;53.464;49.532;2022-10-22T15:07:26;22.90;;;8.10;;
67130;SDS011;54051;53.464;49.532;2022-10-22T15:09:53;15.60;;;6.93;;
67130;SDS011;54051;53.464;49.532;2022-10-22T15:12:19;16.23;;;6.73;;
67130;SDS011;54051;53.464;49.532;2022-10-22T15:14:46;16.65;;;5.70;;
67130;SDS011;54051;53.464;49.532;2022-10-22T15:17:13;14.83;;;4.63;;
67130;SDS011;54051;53.464;49.532;2022-10-22T15:19:40;14.55;;;5.28;;
67130;SDS011;54051;53.464;49.532;2022-10-22T15:22:08;17.40;;;6.05;;
67130;SDS011;54051;53.464;49.532;2022-10-22T15:24:38;15.48;;;5.70;;
67130;SDS011;54051;53.464;49.532;2022-10-22T15:27:05;18.35;;;6.97;;
67130;SDS011;54051;53.464;49.532;2022-10-22T15:29:32;17.33;;;6.00;;
67130;SDS011;54051;53.464;49.532;2022-10-22T15:31:58;16.83;;;5.93;;
67130;SDS011;54051;53.464;49.532;2022-10-22T15:34:26;14.20;;;5.80;;
67130;SDS011;54051;53.464;49.532;2022-10-22T15:36:54;14.07;;;6.57;;
67130;SDS011;54051;53.464;49.532;2022-10-22T15:39:22;17.60;;;7.63;;
67130;SDS011;54051;53.464;49.532;2022-10-22T15:41:49;18.73;;;8.52;;
67130;SDS011;54051;53.464;49.532;2022-10-22T15:44:17;16.58;;;7.50;;
67130;SDS011;54051;53.464;49.532;2022-10-22T15:46:44;20.45;;;7.57;;
67130;SDS011;54051;53.464;49.532;2022-10-22T15:49:11;22.20;;;8.57;;
67130;SDS011;54051;53.464;49.532;2022-10-22T15:51:38;23.88;;;7.85;;
67130;SDS011;54051;53.464;49.532;2022-10-22T15:54:04;23.65;;;8.55;;
67130;SDS011;54051;53.464;49.532;2022-10-22T15:56:30;21.67;;;8.63;;
67130;SDS011;54051;53.464;49.532;2022-10-22T15:58:58;12.75;;;5.53;;
67130;SDS011;54051;53.464;49.532;2022-10-22T16:01:30;12.80;;;5.53;;
67130;SDS011;54051;53.464;49.532;2022-10-22T16:03:58;14.50;;;5.93;;
67130;SDS011;54051;53.464;49.532;2022-10-22T16:06:26;14.07;;;5.35;;
67130;SDS011;54051;53.464;49.532;2022-10-22T16:08:53;10.73;;;5.00;;
67130;SDS011;54051;53.464;49.532;2022-10-22T16:11:21;15.93;;;6.00;;
67130;SDS011;54051;53.464;49.532;2022-10-22T16:13:51;14.48;;;5.22;;
67130;SDS011;54051;53.464;49.532;2022-10-22T16:16:18;16.27;;;6.10;;
67130;SDS011;54051;53.464;49.532;2022-10-22T16:18:45;14.05;;;5.35;;
67130;SDS011;54051;53.464;49.532;2022-10-22T16:21:12;13.32;;;4.47;;
67130;SDS011;54051;53.464;49.532;2022-10-22T16:26:05;12.20;;;4.13;;
67130;SDS011;54051;53.464;49.532;2022-10-22T16:28:31;19.20;;;5.78;;
67130;SDS011;54051;53.464;49.532;2022-10-22T16:31:00;19.42;;;6.32;;
67130;SDS011;54051;53.464;49.532;2022-10-22T16:33:27;17.55;;;5.63;;
67130;SDS011;54051;53.464;49.532;2022-10-22T16:35:53;10.55;;;4.20;;
67130;SDS011;54051;53.464;49.532;2022-10-22T16:41:23;13.85;;;5.38;;
67130;SDS011;54051;53.464;49.532;2022-10-22T16:43:50;12.85;;;5.68;;
67130;SDS011;54051;53.464;49.532;2022-10-22T16:46:20;15.60;;;6.68;;
67130;SDS011;54051;53.464;49.532;2022-10-22T16:48:47;20.38;;;7.82;;
67130;SDS011;54051;53.464;49.532;2022-10-22T16:51:17;20.30;;;7.35;;
67130;SDS011;54051;53.464;49.532;2022-10-22T16:53:49;23.95;;;8.43;;
67130;SDS011;54051;53.464;49.532;2022-10-22T16:56:16;24.13;;;9.52;;
67130;SDS011;54051;53.464;49.532;2022-10-22T16:58:47;24.83;;;8.77;;
67130;SDS011;54051;53.464;49.532;2022-10-22T17:01:15;19.85;;;8.50;;
67130;SDS011;54051;53.464;49.532;2022-10-22T17:06:08;11.38;;;5.22;;
67130;SDS011;54051;53.464;49.532;2022-10-22T17:08:36;20.38;;;6.50;;
67130;SDS011;54051;53.464;49.532;2022-10-22T17:11:04;12.82;;;4.80;;
67130;SDS011;54051;53.464;49.532;2022-10-22T17:13:31;15.00;;;5.32;;
67130;SDS011;54051;53.464;49.532;2022-10-22T17:16:01;12.75;;;5.38;;
67130;SDS011;54051;53.464;49.532;2022-10-22T17:18:29;10.98;;;5.05;;
67130;SDS011;54051;53.464;49.532;2022-10-22T17:20:56;15.07;;;5.57;;
67130;SDS011;54051;53.464;49.532;2022-10-22T17:23:26;13.10;;;4.70;;
67130;SDS011;54051;53.464;49.532;2022-10-22T17:25:59;12.48;;;4.25;;
67130;SDS011;54051;53.464;49.532;2022-10-22T17:28:26;10.35;;;4.47;;
67130;SDS011;54051;53.464;49.532;2022-10-22T17:31:03;17.58;;;6.40;;
67130;SDS011;54051;53.464;49.532;2022-10-22T17:33:32;13.05;;;4.90;;
67130;SDS011;54051;53.464;49.532;2022-10-22T17:35:59;21.73;;;6.80;;
67130;SDS011;54051;53.464;49.532;2022-10-22T17:38:25;15.80;;;6.18;;
67130;SDS011;54051;53.464;49.532;2022-10-22T17:40:52;13.00;;;5.03;;
67130;SDS011;54051;53.464;49.532;2022-10-22T17:43:18;10.68;;;4.95;;
67130;SDS011;54051;53.464;49.532;2022-10-22T17:45:44;13.40;;;5.30;;
67130;SDS011;54051;53.464;49.532;2022-10-22T17:48:10;13.77;;;5.10;;
67130;SDS011;54051;53.464;49.532;2022-10-22T17:50:40;13.02;;;4.53;;
67130;SDS011;54051;53.464;49.532;2022-10-22T17:53:06;10.45;;;4.03;;
67130;SDS011;54051;53.464;49.532;2022-10-22T17:55:32;12.05;;;5.13;;